createdAt,value
2023-06-07T00:02:44.126Z,17.19
2023-06-07T00:05:49.138Z,17.15
2023-06-07T00:08:53.865Z,17.18
2023-06-07T00:11:58.551Z,17.18
2023-06-07T00:15:02.238Z,17.15
2023-06-07T00:18:06.208Z,17.15
2023-06-07T00:21:10.256Z,17.20
2023-06-07T00:24:14.555Z,17.19
2023-06-07T00:27:19.477Z,17.17
2023-06-07T00:30:23.449Z,17.17
2023-06-07T00:33:28.799Z,17.17
2023-06-07T00:36:35.011Z,17.21
2023-06-07T00:39:38.988Z,17.20
2023-06-07T00:42:43.742Z,17.16
2023-06-07T00:45:48.126Z,17.17
2023-06-07T00:48:52.999Z,17.14
2023-06-07T00:51:57.573Z,17.14
2023-06-07T00:55:03.413Z,17.19
2023-06-07T00:58:07.547Z,17.22
2023-06-07T01:01:11.986Z,17.21
2023-06-07T01:04:19.262Z,17.23
2023-06-07T01:07:25.831Z,17.27
2023-06-07T01:10:30.886Z,17.28
2023-06-07T01:13:35.614Z,17.28
2023-06-07T01:16:49.708Z,17.32
2023-06-07T01:19:54.702Z,17.32
2023-06-07T01:23:00.865Z,17.28
2023-06-07T01:26:06.011Z,17.28
2023-06-07T01:29:10.188Z,17.28
2023-06-07T01:32:14.658Z,17.32
2023-06-07T01:35:20.651Z,17.32
2023-06-07T01:38:27.737Z,17.36
2023-06-07T01:41:33.300Z,17.36
2023-06-07T01:44:39.777Z,17.37
2023-06-07T01:47:44.423Z,17.31
2023-06-07T01:50:48.315Z,17.28
2023-06-07T01:53:52.621Z,17.25
2023-06-07T01:57:22.016Z,17.28
2023-06-07T02:00:32.001Z,17.29
2023-06-07T02:03:42.886Z,17.21
2023-06-07T02:06:50.166Z,17.17
2023-06-07T02:09:54.934Z,17.15
2023-06-07T02:13:00.565Z,17.13
2023-06-07T02:16:07.601Z,17.05
2023-06-07T02:19:12.410Z,17.01
2023-06-07T02:22:16.601Z,17.02
2023-06-07T02:25:21.343Z,17.03
2023-06-07T02:28:25.355Z,17.03
2023-06-07T02:31:29.353Z,17.13
2023-06-07T02:34:37.224Z,17.10
2023-06-07T02:37:41.401Z,17.09
2023-06-07T02:40:45.374Z,17.06
2023-06-07T02:43:49.568Z,17.08
2023-06-07T02:46:53.635Z,17.04
2023-06-07T02:49:58.744Z,17.09
2023-06-07T02:53:03.522Z,17.03
2023-06-07T02:56:07.546Z,17.12
2023-06-07T02:59:11.309Z,17.11
2023-06-07T03:02:16.025Z,17.08
2023-06-07T03:05:20.298Z,17.03
2023-06-07T03:08:24.386Z,17.07
2023-06-07T03:11:28.442Z,17.02
2023-06-07T03:14:32.303Z,17.05
2023-06-07T03:17:37.108Z,17.10
2023-06-07T03:20:41.012Z,17.06
2023-06-07T03:23:45.181Z,17.01
2023-06-07T03:26:49.716Z,17.11
2023-06-07T03:29:53.796Z,17.09
2023-06-07T03:32:58.112Z,17.11
2023-06-07T03:36:02.841Z,17.16
2023-06-07T03:39:06.955Z,17.18
2023-06-07T03:42:11.276Z,17.13
2023-06-07T03:45:15.544Z,17.14
2023-06-07T03:48:19.750Z,17.14
2023-06-07T03:51:24.245Z,17.18
2023-06-07T03:54:28.468Z,17.12
2023-06-07T03:57:32.671Z,17.11
2023-06-07T04:00:36.470Z,17.13
2023-06-07T04:03:40.747Z,17.11
2023-06-07T04:06:45.493Z,17.13
2023-06-07T04:09:49.669Z,17.12
2023-06-07T04:12:53.722Z,17.13
2023-06-07T04:15:57.683Z,17.18
2023-06-07T04:19:02.543Z,17.28
2023-06-07T04:22:07.032Z,17.31
2023-06-07T04:25:11.329Z,17.32
2023-06-07T04:28:15.427Z,17.37
2023-06-07T04:31:19.231Z,17.45
2023-06-07T04:34:27.017Z,17.52
2023-06-07T04:37:32.337Z,17.55
2023-06-07T04:40:42.266Z,17.64
2023-06-07T04:43:49.931Z,17.74
2023-06-07T04:47:02.047Z,17.80
2023-06-07T04:50:10.080Z,17.89
2023-06-07T04:53:20.815Z,17.88
2023-06-07T04:56:27.153Z,17.95
2023-06-07T04:59:36.043Z,18.10
2023-06-07T05:02:44.671Z,18.19
2023-06-07T05:05:49.511Z,18.24
2023-06-07T05:08:53.661Z,18.28
2023-06-07T05:11:57.784Z,18.32
2023-06-07T05:15:02.117Z,18.31
2023-06-07T05:18:08.367Z,18.28
2023-06-07T05:21:13.211Z,18.31
2023-06-07T05:24:17.748Z,18.34
2023-06-07T05:27:22.230Z,18.38
2023-06-07T05:30:26.805Z,18.42
2023-06-07T05:33:32.036Z,18.47
2023-06-07T05:36:36.820Z,18.46
2023-06-07T05:39:42.921Z,18.50
2023-06-07T05:42:47.249Z,18.53
2023-06-07T05:45:51.409Z,18.58
2023-06-07T05:48:55.331Z,18.55
2023-06-07T05:51:59.370Z,18.54
2023-06-07T05:55:03.331Z,18.57
2023-06-07T05:58:07.628Z,18.63
2023-06-07T06:01:12.304Z,18.68
2023-06-07T06:04:19.478Z,18.68
2023-06-07T06:07:23.396Z,18.68
2023-06-07T06:10:27.428Z,18.61
2023-06-07T06:13:33.795Z,18.62
2023-06-07T06:16:37.974Z,18.65
2023-06-07T06:19:42.829Z,18.67
2023-06-07T06:22:47.036Z,18.68
2023-06-07T06:25:51.886Z,18.56
2023-06-07T06:28:56.009Z,18.54
2023-06-07T06:32:03.591Z,18.47
2023-06-07T06:35:08.468Z,18.45
2023-06-07T06:38:12.829Z,18.48
2023-06-07T06:41:16.901Z,18.49
2023-06-07T06:44:20.536Z,18.51
2023-06-07T06:47:26.330Z,18.54
2023-06-07T06:50:33.564Z,18.56
2023-06-07T06:53:38.263Z,18.58
2023-06-07T06:56:42.596Z,18.58
2023-06-07T06:59:49.387Z,18.56
2023-06-07T07:02:54.745Z,18.51
2023-06-07T07:05:58.825Z,18.49
2023-06-07T07:09:02.979Z,18.43
2023-06-07T07:12:07.933Z,18.57
2023-06-07T07:15:12.451Z,18.77
2023-06-07T07:18:16.495Z,19.05
2023-06-07T07:21:20.486Z,19.24
2023-06-07T07:24:24.282Z,19.40
2023-06-07T07:27:28.314Z,19.58
2023-06-07T07:30:32.845Z,19.68
2023-06-07T07:33:37.117Z,19.69
2023-06-07T07:36:41.244Z,19.63
2023-06-07T07:39:45.470Z,19.48
2023-06-07T07:42:50.054Z,19.27
2023-06-07T07:45:54.373Z,19.12
2023-06-07T07:48:58.356Z,19.17
2023-06-07T07:52:02.446Z,19.22
2023-06-07T07:55:08.675Z,19.34
2023-06-07T07:58:13.357Z,19.48
2023-06-07T08:01:19.379Z,19.52
2023-06-07T08:04:23.453Z,19.49
2023-06-07T08:07:27.805Z,19.51
2023-06-07T08:10:32.171Z,19.53
2023-06-07T08:13:36.533Z,19.69
2023-06-07T08:16:40.868Z,19.75
2023-06-07T08:19:45.179Z,19.73
2023-06-07T08:22:51.675Z,19.73
2023-06-07T08:25:58.953Z,19.64
2023-06-07T08:29:02.666Z,19.61
2023-06-07T08:32:07.074Z,19.58
2023-06-07T08:35:12.216Z,19.55
2023-06-07T08:38:16.344Z,19.56
2023-06-07T08:41:20.553Z,19.66
2023-06-07T08:44:24.653Z,19.83
2023-06-07T08:47:29.480Z,19.85
2023-06-07T08:50:35.222Z,19.92
2023-06-07T08:53:49.737Z,19.99
2023-06-07T08:56:56.297Z,20.32
2023-06-07T09:00:01.559Z,21.05
2023-06-07T09:03:07.466Z,22.00
2023-06-07T09:06:12.361Z,22.74
2023-06-07T09:09:16.488Z,23.39
2023-06-07T09:12:20.987Z,23.87
2023-06-07T09:15:25.008Z,23.73
2023-06-07T09:18:54.706Z,23.75
2023-06-07T09:21:59.265Z,24.07
2023-06-07T09:25:10.281Z,23.75
2023-06-07T09:28:15.363Z,23.56
2023-06-07T09:31:30.430Z,23.19
2023-06-07T09:34:34.918Z,23.31
2023-06-07T09:37:47.217Z,23.45
2023-06-07T09:40:52.384Z,23.53
2023-06-07T09:43:56.710Z,23.58
2023-06-07T09:47:04.545Z,23.50
2023-06-07T09:50:11.118Z,23.30
2023-06-07T09:53:16.186Z,23.24
2023-06-07T09:56:22.738Z,23.35
2023-06-07T09:59:27.006Z,23.32
2023-06-07T10:02:31.328Z,23.33
2023-06-07T10:05:36.040Z,23.32
2023-06-07T10:08:40.297Z,23.30
2023-06-07T10:11:47.353Z,23.25
2023-06-07T10:14:53.401Z,23.22
2023-06-07T10:18:12.396Z,23.30
2023-06-07T10:21:20.294Z,23.42
2023-06-07T10:24:36.656Z,23.60
2023-06-07T10:28:26.151Z,23.74
2023-06-07T10:31:35.816Z,23.89
2023-06-07T10:34:40.665Z,24.03
2023-06-07T10:37:45.411Z,24.24
2023-06-07T10:40:49.853Z,24.55
2023-06-07T10:43:53.651Z,24.56
2023-06-07T10:47:23.315Z,24.72
2023-06-07T10:50:27.300Z,24.74
2023-06-07T10:53:51.442Z,24.80
2023-06-07T10:56:55.349Z,24.55
2023-06-07T11:00:31.208Z,24.58
2023-06-07T11:03:38.995Z,24.53
2023-06-07T11:07:15.866Z,24.61
2023-06-07T11:10:32.368Z,24.69
2023-06-07T11:13:48.435Z,24.72
2023-06-07T11:16:52.530Z,24.44
2023-06-07T11:19:58.901Z,24.67
2023-06-07T11:23:26.751Z,24.63
2023-06-07T11:26:35.615Z,24.40
2023-06-07T11:29:40.580Z,24.57
2023-06-07T11:32:46.142Z,24.67
2023-06-07T11:35:50.920Z,24.88
2023-06-07T11:38:56.942Z,25.09
2023-06-07T11:42:01.127Z,25.33
2023-06-07T11:45:05.666Z,25.35
2023-06-07T11:48:10.860Z,25.30
2023-06-07T11:51:15.453Z,25.27
2023-06-07T11:54:24.264Z,25.42
2023-06-07T11:57:33.269Z,25.38
2023-06-07T12:00:38.666Z,25.36
2023-06-07T12:03:45.268Z,25.28
2023-06-07T12:06:52.538Z,25.20
2023-06-07T12:09:56.890Z,25.32
2023-06-07T12:13:11.144Z,25.34
2023-06-07T12:16:15.574Z,25.49
2023-06-07T12:19:20.146Z,25.59
2023-06-07T12:22:26.670Z,25.58
2023-06-07T12:25:30.837Z,25.65
2023-06-07T12:28:35.097Z,25.60
2023-06-07T12:31:42.335Z,25.60
2023-06-07T12:34:46.833Z,25.55
2023-06-07T12:37:51.104Z,25.38
2023-06-07T12:40:55.355Z,25.38
2023-06-07T12:44:00.833Z,25.61
2023-06-07T12:47:04.929Z,25.63
2023-06-07T12:50:10.100Z,25.61
2023-06-07T12:53:14.334Z,25.61
2023-06-07T12:56:18.552Z,25.33
2023-06-07T12:59:22.701Z,25.38
2023-06-07T13:02:27.849Z,25.39
2023-06-07T13:05:32.407Z,25.31
2023-06-07T13:08:36.820Z,25.28
2023-06-07T13:11:42.882Z,25.39
2023-06-07T13:14:47.585Z,25.35
2023-06-07T13:17:51.755Z,25.52
2023-06-07T13:20:56.437Z,25.59
2023-06-07T13:24:00.587Z,25.64
2023-06-07T13:27:05.063Z,25.80
2023-06-07T13:30:09.839Z,25.88
2023-06-07T13:33:18.216Z,25.85
2023-06-07T13:36:23.409Z,25.78
2023-06-07T13:39:27.648Z,25.70
2023-06-07T13:42:32.418Z,25.71
2023-06-07T13:45:37.200Z,25.54
2023-06-07T13:48:42.408Z,25.60
2023-06-07T13:51:47.425Z,25.61
2023-06-07T13:54:51.660Z,25.50
2023-06-07T13:57:56.075Z,25.38
2023-06-07T14:01:03.853Z,25.27
2023-06-07T14:04:08.659Z,25.29
2023-06-07T14:07:12.904Z,25.39
2023-06-07T14:10:17.452Z,25.54
2023-06-07T14:13:22.260Z,25.60
2023-06-07T14:16:28.390Z,25.60
2023-06-07T14:19:32.971Z,25.64
2023-06-07T14:22:36.995Z,25.57
2023-06-07T14:25:40.996Z,25.50
2023-06-07T14:28:45.523Z,25.39
2023-06-07T14:31:49.666Z,25.32
2023-06-07T14:34:53.880Z,25.20
2023-06-07T14:37:58.061Z,25.13
2023-06-07T14:41:01.955Z,25.08
2023-06-07T14:44:06.660Z,25.06
2023-06-07T14:47:10.846Z,25.06
2023-06-07T14:50:15.111Z,25.08
2023-06-07T14:53:19.225Z,24.85
2023-06-07T14:56:23.493Z,24.76
2023-06-07T14:59:27.726Z,24.56
2023-06-07T15:02:32.103Z,24.48
2023-06-07T15:05:36.338Z,24.31
2023-06-07T15:08:41.032Z,24.17
2023-06-07T15:11:45.178Z,24.00
2023-06-07T15:14:49.139Z,23.88
2023-06-07T15:17:54.076Z,23.68
2023-06-07T15:20:59.973Z,23.61
2023-06-07T15:24:04.222Z,23.38
2023-06-07T15:27:08.683Z,23.26
2023-06-07T15:30:13.503Z,23.22
2023-06-07T15:33:17.801Z,23.14
2023-06-07T15:36:21.735Z,23.00
2023-06-07T15:39:25.833Z,22.90
2023-06-07T15:42:30.392Z,22.76
2023-06-07T15:45:34.454Z,22.62
2023-06-07T15:48:38.708Z,22.44
2023-06-07T15:51:42.724Z,22.48
2023-06-07T15:54:46.862Z,22.38
2023-06-07T15:57:51.644Z,22.25
2023-06-07T16:00:56.134Z,22.15
2023-06-07T16:04:00.610Z,22.03
2023-06-07T16:07:05.129Z,21.89
2023-06-07T16:10:09.543Z,21.77
2023-06-07T16:13:13.447Z,21.70
2023-06-07T16:16:17.846Z,21.60
2023-06-07T16:19:21.934Z,21.48
2023-06-07T16:22:26.186Z,21.41
2023-06-07T16:25:30.276Z,21.29
2023-06-07T16:28:34.506Z,21.20
2023-06-07T16:31:38.611Z,21.10
2023-06-07T16:34:42.727Z,21.04
2023-06-07T16:37:46.828Z,20.99
2023-06-07T16:40:50.955Z,20.96
2023-06-07T16:43:55.111Z,20.94
2023-06-07T16:46:59.902Z,20.94
2023-06-07T16:50:05.196Z,20.95
2023-06-07T16:53:09.506Z,20.90
2023-06-07T16:56:13.827Z,20.91
2023-06-07T16:59:17.812Z,20.90
2023-06-07T17:02:21.906Z,20.91
2023-06-07T17:05:26.049Z,20.88
2023-06-07T17:08:30.196Z,20.81
2023-06-07T17:11:34.454Z,20.90
2023-06-07T17:14:38.742Z,20.86
2023-06-07T17:17:42.712Z,20.86
2023-06-07T17:20:49.298Z,20.82
2023-06-07T17:23:53.737Z,20.77
2023-06-07T17:26:57.867Z,20.76
2023-06-07T17:30:02.069Z,20.72
2023-06-07T17:33:07.225Z,20.67
2023-06-07T17:36:11.557Z,20.66
2023-06-07T17:39:16.678Z,20.63
2023-06-07T17:42:22.208Z,20.62
2023-06-07T17:45:29.786Z,20.61
2023-06-07T17:48:33.682Z,20.62
2023-06-07T17:51:38.155Z,20.62
2023-06-07T17:54:42.362Z,20.59
2023-06-07T17:57:46.544Z,20.60
2023-06-07T18:00:50.667Z,20.57
2023-06-07T18:03:54.816Z,20.55
2023-06-07T18:07:01.299Z,20.52
2023-06-07T18:10:08.806Z,20.54
2023-06-07T18:13:13.216Z,20.55
2023-06-07T18:16:17.312Z,20.52
2023-06-07T18:19:21.348Z,20.51
2023-06-07T18:22:25.657Z,20.46
2023-06-07T18:25:30.610Z,20.44
2023-06-07T18:28:34.828Z,20.37
2023-06-07T18:31:40.685Z,20.36
2023-06-07T18:34:44.617Z,20.41
2023-06-07T18:37:49.063Z,20.40
2023-06-07T18:40:53.668Z,20.33
2023-06-07T18:44:01.329Z,20.31
2023-06-07T18:47:07.024Z,20.31
2023-06-07T18:50:11.923Z,20.28
2023-06-07T18:53:16.298Z,20.29
2023-06-07T18:56:21.268Z,20.20
2023-06-07T18:59:25.056Z,20.23
2023-06-07T19:02:29.610Z,20.21
2023-06-07T19:05:34.143Z,20.17
2023-06-07T19:08:39.972Z,20.12
2023-06-07T19:11:44.117Z,20.08
2023-06-07T19:14:48.287Z,20.08
2023-06-07T19:17:52.610Z,20.02
2023-06-07T19:20:57.160Z,19.98
2023-06-07T19:24:04.062Z,19.83
2023-06-07T19:27:11.858Z,19.79
2023-06-07T19:30:16.214Z,19.81
2023-06-07T19:33:20.123Z,19.78
2023-06-07T19:36:23.878Z,19.76
2023-06-07T19:39:27.832Z,19.78
2023-06-07T19:42:31.990Z,19.84
2023-06-07T19:45:36.135Z,19.82
2023-06-07T19:48:42.850Z,19.84
2023-06-07T19:51:46.737Z,19.79
2023-06-07T19:54:51.086Z,19.77
2023-06-07T19:57:55.564Z,19.72
2023-06-07T20:00:59.605Z,19.74
2023-06-07T20:04:03.347Z,19.71
2023-06-07T20:07:09.318Z,19.65
2023-06-07T20:10:14.762Z,19.59
2023-06-07T20:13:18.897Z,19.52
2023-06-07T20:16:23.304Z,19.52
2023-06-07T20:19:27.667Z,19.48
2023-06-07T20:22:34.304Z,19.42
2023-06-07T20:25:38.343Z,19.35
2023-06-07T20:28:42.400Z,19.34
2023-06-07T20:31:53.158Z,19.28
2023-06-07T20:34:58.668Z,19.21
2023-06-07T20:38:02.733Z,19.20
2023-06-07T20:41:06.786Z,19.15
2023-06-07T20:44:10.781Z,19.11
2023-06-07T20:47:14.914Z,19.09
2023-06-07T20:50:18.880Z,19.10
2023-06-07T20:53:23.141Z,19.04
2023-06-07T20:56:27.714Z,19.02
2023-06-07T20:59:32.096Z,18.99
2023-06-07T21:02:36.631Z,18.96
2023-06-07T21:05:41.347Z,18.97
2023-06-07T21:08:45.449Z,18.98
2023-06-07T21:11:50.098Z,18.93
2023-06-07T21:14:56.515Z,18.87
2023-06-07T21:18:00.664Z,18.87
2023-06-07T21:21:05.054Z,18.84
2023-06-07T21:24:09.055Z,18.85
2023-06-07T21:27:13.118Z,18.85
2023-06-07T21:30:17.571Z,18.86
2023-06-07T21:33:22.008Z,18.79
2023-06-07T21:36:26.613Z,18.75
2023-06-07T21:39:31.148Z,18.77
2023-06-07T21:42:35.076Z,18.71
2023-06-07T21:45:38.943Z,18.68
2023-06-07T21:48:43.019Z,18.71
2023-06-07T21:51:47.445Z,18.70
2023-06-07T21:54:51.589Z,18.72
2023-06-07T21:57:55.739Z,18.68
2023-06-07T22:01:00.017Z,18.60
2023-06-07T22:04:04.796Z,18.65
2023-06-07T22:07:09.008Z,18.62
2023-06-07T22:10:13.658Z,18.57
2023-06-07T22:13:21.496Z,18.55
2023-06-07T22:16:26.504Z,18.60
2023-06-07T22:19:31.298Z,18.63
2023-06-07T22:22:35.517Z,18.61
2023-06-07T22:25:41.986Z,18.59
2023-06-07T22:28:47.240Z,18.54
2023-06-07T22:31:51.348Z,18.55
2023-06-07T22:35:04.799Z,18.56
2023-06-07T22:38:13.326Z,18.56
2023-06-07T22:41:17.662Z,18.58
2023-06-07T22:44:21.780Z,18.60
2023-06-07T22:47:29.850Z,18.56
2023-06-07T22:50:38.075Z,18.53
2023-06-07T22:53:42.166Z,18.53
2023-06-07T22:56:46.190Z,18.54
2023-06-07T22:59:50.224Z,18.55
2023-06-07T23:02:54.834Z,18.55
2023-06-07T23:06:02.696Z,18.58
2023-06-07T23:09:06.758Z,18.61
2023-06-07T23:12:11.080Z,18.73
2023-06-07T23:15:16.581Z,18.75
2023-06-07T23:18:21.578Z,18.71
2023-06-07T23:21:30.146Z,18.75
2023-06-07T23:24:34.316Z,18.73
2023-06-07T23:27:44.771Z,18.70
2023-06-07T23:30:49.019Z,18.69
2023-06-07T23:33:53.408Z,18.63
2023-06-07T23:36:57.189Z,18.64
2023-06-07T23:40:03.361Z,18.65
2023-06-07T23:43:08.053Z,18.68
2023-06-07T23:46:13.003Z,18.67
2023-06-07T23:49:17.195Z,18.69
2023-06-07T23:52:21.438Z,18.65
2023-06-07T23:55:25.894Z,18.58
2023-06-07T23:58:30.083Z,18.57
